Time;durP1;ratioP1;P1;durP2;ratioP2;P2;SDS_P1;SDS_P2;PMS_P1;PMS_P2;Temp;Humidity;BMP_temperature;BMP_pressure;BME280_temperature;BME280_humidity;BME280_pressure;Samples;Min_cycle;Max_cycle;Signal;HPM_P1;HPM_P2
2021/08/07 00:00:02;;;;;;;6.65;1.23;;;24.40;37.50;;;;;;4342113;33;20141;-38
2021/08/07 00:02:29;;;;;;;3.70;1.40;;;24.50;37.50;;;;;;4342758;33;20062;-38
2021/08/07 00:04:55;;;;;;;5.22;1.33;;;24.40;37.50;;;;;;4343079;33;20078;-38
2021/08/07 00:07:26;;;;;;;5.72;1.73;;;24.40;37.50;;;;;;4329966;33;20074;-38
2021/08/07 00:09:53;;;;;;;5.60;1.45;;;24.40;37.60;;;;;;4342429;33;20086;-38
2021/08/07 00:12:20;;;;;;;4.55;1.62;;;24.30;37.70;;;;;;4342311;33;20574;-38
2021/08/07 00:14:46;;;;;;;4.85;1.05;;;24.30;37.70;;;;;;4342392;33;20082;-38
2021/08/07 00:17:15;;;;;;;4.47;1.02;;;24.30;37.70;;;;;;4330100;33;20155;-38
2021/08/07 00:19:41;;;;;;;4.93;1.20;;;24.40;37.70;;;;;;4341843;33;20082;-38
2021/08/07 00:22:07;;;;;;;2.65;1.33;;;24.40;37.80;;;;;;4334096;32;20539;-38
2021/08/07 00:24:34;;;;;;;6.32;1.23;;;24.30;37.80;;;;;;4359583;32;20081;-38
2021/08/07 00:27:00;;;;;;;2.22;1.35;;;24.30;37.80;;;;;;4359791;32;20067;-37
2021/08/07 00:29:27;;;;;;;4.45;1.40;;;24.30;37.80;;;;;;4357727;32;20153;-38
2021/08/07 00:31:53;;;;;;;2.20;1.40;;;24.20;38.10;;;;;;4359358;32;20082;-37
2021/08/07 00:34:19;;;;;;;4.47;1.55;;;24.10;38.30;;;;;;4359365;32;20090;-38
2021/08/07 00:36:46;;;;;;;2.45;1.35;;;24.00;38.40;;;;;;4359391;32;20054;-37
2021/08/07 00:39:12;;;;;;;3.97;1.42;;;23.90;38.60;;;;;;4359183;32;20064;-37
2021/08/07 00:41:38;;;;;;;4.72;1.85;;;23.90;38.70;;;;;;4359153;32;20094;-38
2021/08/07 00:44:05;;;;;;;3.42;1.30;;;23.90;38.70;;;;;;4345215;32;20071;-38
2021/08/07 00:46:31;;;;;;;2.92;1.85;;;23.90;38.60;;;;;;4359120;32;20110;-38
2021/08/07 00:48:58;;;;;;;3.97;2.40;;;23.90;38.70;;;;;;4359465;32;20507;-37
2021/08/07 00:51:24;;;;;;;5.93;3.28;;;23.80;38.70;;;;;;4359208;32;20074;-37
2021/08/07 00:53:50;;;;;;;5.60;3.35;;;23.80;38.80;;;;;;4345427;32;20191;-38
2021/08/07 00:56:17;;;;;;;5.12;2.22;;;23.80;38.70;;;;;;4344962;32;20062;-38
2021/08/07 00:58:43;;;;;;;4.25;1.98;;;23.90;38.70;;;;;;4358758;32;20093;-37
2021/08/07 01:01:13;;;;;;;4.85;2.05;;;23.90;38.60;;;;;;4358826;32;20184;-37
2021/08/07 01:03:46;;;;;;;2.42;1.40;;;23.90;38.60;;;;;;4345734;32;20652;-37
2021/08/07 01:06:49;;;;;;;2.45;1.62;;;23.90;38.70;;;;;;4345193;32;20231;-37
2021/08/07 01:09:28;;;;;;;6.32;1.75;;;23.90;38.70;;;;;;4312143;33;20064;-38
2021/08/07 01:12:01;;;;;;;5.03;1.62;;;23.90;38.50;;;;;;4311841;33;20503;-36
2021/08/07 01:14:38;;;;;;;4.18;1.50;;;23.90;38.60;;;;;;4300271;33;20070;-37
2021/08/07 01:17:09;;;;;;;3.22;1.90;;;23.80;38.60;;;;;;4300519;33;20081;-37
2021/08/07 01:19:59;;;;;;;4.57;1.08;;;23.80;38.60;;;;;;4300124;33;20205;-37
2021/08/07 01:22:42;;;;;;;5.93;1.55;;;23.90;38.80;;;;;;4299638;33;20496;-38
2021/08/07 01:25:11;;;;;;;6.30;1.50;;;23.80;38.70;;;;;;4301323;33;20135;-37
2021/08/07 01:27:38;;;;;;;4.80;1.48;;;23.90;38.50;;;;;;4300151;33;20059;-37
2021/08/07 01:30:09;;;;;;;2.45;1.25;;;23.80;38.50;;;;;;4311804;33;20070;-38
2021/08/07 01:32:36;;;;;;;5.15;1.33;;;23.80;38.70;;;;;;4311240;33;20126;-38
2021/08/07 01:35:03;;;;;;;2.03;1.55;;;23.80;38.70;;;;;;4299997;33;20087;-37
2021/08/07 01:37:29;;;;;;;8.25;5.07;;;23.80;38.80;;;;;;4312112;33;20070;-38
2021/08/07 01:39:56;;;;;;;4.82;1.30;;;23.90;38.70;;;;;;4311419;33;20063;-36
2021/08/07 01:42:26;;;;;;;5.68;2.53;;;23.90;38.70;;;;;;4306573;33;20111;-36
2021/08/07 01:44:53;;;;;;;4.22;1.52;;;23.90;38.80;;;;;;4315429;32;20144;-38
2021/08/07 01:47:46;;;;;;;9.77;1.67;;;23.80;38.80;;;;;;4355785;32;20183;-37
2021/08/07 01:50:31;;;;;;;5.50;1.60;;;23.90;38.90;;;;;;4343577;32;20082;-37
2021/08/07 01:53:07;;;;;;;6.05;1.85;;;23.90;38.80;;;;;;4355698;32;20528;-38
2021/08/07 01:56:22;;;;;;;6.55;1.58;;;24.00;38.70;;;;;;4331814;32;20110;-38
2021/08/07 01:59:03;;;;;;;3.45;1.37;;;24.10;38.60;;;;;;4355777;32;20163;-37
2021/08/07 02:01:29;;;;;;;5.20;1.37;;;24.10;38.50;;;;;;4344040;32;20075;-37
2021/08/07 02:03:58;;;;;;;3.60;1.30;;;24.20;38.60;;;;;;4343583;32;20164;-37
2021/08/07 02:06:24;;;;;;;5.57;1.60;;;24.30;38.70;;;;;;4330778;32;20507;-37
2021/08/07 02:08:51;;;;;;;3.78;1.70;;;24.50;38.50;;;;;;4343293;32;20486;-38
2021/08/07 02:11:17;;;;;;;6.95;1.27;;;24.70;38.40;;;;;;4355668;32;20140;-38
2021/08/07 02:13:44;;;;;;;2.80;0.88;;;24.80;38.30;;;;;;4353769;32;20070;-37
2021/08/07 02:16:11;;;;;;;2.78;1.50;;;25.00;38.20;;;;;;4359275;32;20084;-38
2021/08/07 02:18:39;;;;;;;5.93;1.52;;;25.20;38.10;;;;;;4373142;32;20076;-37
2021/08/07 02:21:06;;;;;;;6.45;1.20;;;25.30;38.10;;;;;;4373206;32;20076;-38
2021/08/07 02:23:32;;;;;;;8.15;1.95;;;25.50;38.40;;;;;;4373379;32;20108;-37
2021/08/07 02:26:02;;;;;;;4.28;1.27;;;25.70;38.40;;;;;;4359138;32;20058;-37
2021/08/07 02:28:29;;;;;;;7.95;2.60;;;25.90;38.30;;;;;;4359233;32;20073;-38
2021/08/07 02:30:57;;;;;;;13.45;2.75;;;26.20;38.20;;;;;;4373001;32;20230;-37
2021/08/07 02:33:24;;;;;;;27.98;7.75;;;26.40;37.80;;;;;;4334776;32;20558;-36
2021/08/07 02:35:52;;;;;;;4.22;1.55;;;26.80;37.60;;;;;;4334474;32;20530;-37
2021/08/07 02:38:18;;;;;;;4.28;1.20;;;27.10;37.30;;;;;;4359087;32;20050;-38
2021/08/07 02:40:45;;;;;;;6.85;1.85;;;27.50;36.90;;;;;;4372448;32;20181;-36
2021/08/07 02:43:12;;;;;;;2.62;1.00;;;27.80;36.60;;;;;;4359666;32;20062;-38
2021/08/07 02:45:38;;;;;;;3.67;1.20;;;28.20;36.10;;;;;;4361199;32;20121;-37
2021/08/07 02:48:05;;;;;;;1.80;1.10;;;28.50;35.70;;;;;;4335272;32;20520;-37
2021/08/07 02:50:32;;;;;;;5.60;1.30;;;28.90;35.20;;;;;;4335249;32;20071;-38
2021/08/07 02:52:59;;;;;;;2.37;1.20;;;29.20;34.80;;;;;;4334853;32;20177;-38
2021/08/07 02:55:25;;;;;;;1.90;1.12;;;29.50;34.40;;;;;;4347116;32;20109;-37
2021/08/07 02:57:52;;;;;;;3.92;2.30;;;29.80;34.00;;;;;;4360760;32;20466;-37
2021/08/07 03:00:20;;;;;;;3.67;1.00;;;30.20;33.70;;;;;;4334840;32;20071;-37
2021/08/07 03:02:46;;;;;;;4.00;1.00;;;30.50;33.50;;;;;;4360370;32;20470;-38
2021/08/07 03:05:13;;;;;;;4.07;1.17;;;30.80;33.10;;;;;;4360680;32;20062;-38
2021/08/07 03:07:39;;;;;;;3.37;0.70;;;31.10;32.90;;;;;;4346966;32;20155;-37
2021/08/07 03:10:08;;;;;;;3.70;0.90;;;31.40;31.90;;;;;;4360371;32;20070;-38
2021/08/07 03:12:35;;;;;;;5.50;0.98;;;31.80;31.40;;;;;;4360661;32;20469;-37
2021/08/07 03:15:03;;;;;;;1.30;0.68;;;32.30;30.90;;;;;;4360570;32;20086;-37
2021/08/07 03:17:29;;;;;;;2.97;0.80;;;32.80;30.30;;;;;;4360359;32;20069;-39
2021/08/07 03:19:55;;;;;;;1.62;1.08;;;33.20;29.70;;;;;;4360533;32;20101;-37
2021/08/07 03:22:22;;;;;;;10.20;1.85;;;33.60;29.50;;;;;;4360792;32;20113;-37
2021/08/07 03:24:48;;;;;;;0.90;0.80;;;33.90;29.00;;;;;;4327706;33;20091;-38
2021/08/07 03:27:15;;;;;;;1.12;0.75;;;34.20;28.80;;;;;;4328406;33;20101;-38
2021/08/07 03:29:41;;;;;;;3.17;0.70;;;34.50;28.60;;;;;;4328367;33;20136;-37
2021/08/07 03:32:08;;;;;;;0.70;0.62;;;34.80;28.00;;;;;;4328696;33;20084;-38
2021/08/07 03:34:34;;;;;;;5.43;1.12;;;35.20;27.90;;;;;;4328536;33;20187;-37
2021/08/07 03:37:00;;;;;;;0.80;0.70;;;35.50;27.70;;;;;;4315943;33;20066;-37
2021/08/07 03:39:27;;;;;;;1.50;0.75;;;35.70;27.30;;;;;;4327943;33;20072;-39
2021/08/07 03:41:53;;;;;;;15.23;3.37;;;35.90;27.10;;;;;;4334916;33;20075;-38
2021/08/07 03:44:19;;;;;;;2.25;0.60;;;36.20;27.00;;;;;;4342764;33;20071;-38
2021/08/07 03:46:46;;;;;;;6.68;1.55;;;36.50;27.20;;;;;;4342928;33;20074;-38
2021/08/07 03:49:12;;;;;;;7.47;1.67;;;36.70;26.40;;;;;;4343182;33;20067;-37
2021/08/07 03:51:39;;;;;;;3.33;0.68;;;37.00;26.30;;;;;;4343081;33;20074;-38
2021/08/07 03:54:05;;;;;;;2.80;0.90;;;37.20;26.00;;;;;;4341957;33;20071;-38
2021/08/07 03:56:31;;;;;;;2.75;1.12;;;37.30;25.90;;;;;;4356406;32;20142;-38
2021/08/07 03:58:58;;;;;;;1.00;0.70;;;37.50;25.90;;;;;;4360097;32;20070;-39
2021/08/07 04:01:24;;;;;;;2.58;1.10;;;37.70;25.90;;;;;;4313146;33;20106;-38
2021/08/07 04:03:50;;;;;;;2.80;0.90;;;37.80;25.70;;;;;;4312962;33;20094;-37
2021/08/07 04:06:17;;;;;;;2.00;0.73;;;38.10;25.60;;;;;;4313146;33;20066;-38
2021/08/07 04:08:43;;;;;;;3.28;0.90;;;38.30;26.10;;;;;;4313207;33;20131;-38
2021/08/07 04:11:10;;;;;;;5.15;1.00;;;38.40;26.10;;;;;;4313092;33;20072;-38
2021/08/07 04:13:36;;;;;;;5.28;1.00;;;38.40;26.10;;;;;;4313239;33;20113;-38
2021/08/07 04:16:04;;;;;;;1.95;0.85;;;38.30;26.40;;;;;;4312824;33;20086;-37
2021/08/07 04:18:30;;;;;;;3.12;0.90;;;38.10;26.50;;;;;;4289289;33;20167;-37
2021/08/07 04:20:56;;;;;;;3.33;0.88;;;37.90;26.70;;;;;;4313123;33;20123;-38
2021/08/07 04:23:23;;;;;;;2.00;0.80;;;37.70;26.80;;;;;;4313113;33;20087;-38
2021/08/07 04:25:49;;;;;;;0.88;0.70;;;37.60;26.90;;;;;;4312852;33;20218;-38
2021/08/07 04:28:16;;;;;;;2.40;0.80;;;37.50;26.80;;;;;;4312428;33;20194;-38
2021/08/07 04:30:42;;;;;;;3.65;0.62;;;37.60;26.80;;;;;;4300861;33;20072;-39
2021/08/07 04:33:08;;;;;;;1.55;0.95;;;37.70;26.90;;;;;;4350423;32;20066;-38
2021/08/07 04:35:36;;;;;;;4.78;0.77;;;37.80;26.70;;;;;;4359341;32;20494;-38
2021/08/07 04:38:03;;;;;;;3.65;1.00;;;37.90;26.50;;;;;;4359408;32;20120;-38
2021/08/07 04:40:30;;;;;;;3.80;0.80;;;38.00;26.60;;;;;;4359324;32;20089;-39
2021/08/07 04:42:56;;;;;;;3.58;0.98;;;38.00;26.40;;;;;;4330766;33;20075;-38
2021/08/07 04:45:23;;;;;;;4.40;0.88;;;38.10;26.40;;;;;;4344057;33;20531;-36
2021/08/07 04:47:54;;;;;;;6.30;1.10;;;38.20;26.20;;;;;;4344105;33;20083;-38
2021/08/07 04:50:26;;;;;;;7.60;2.05;;;38.40;26.30;;;;;;4344256;33;20487;-38
2021/08/07 04:52:54;;;;;;;2.97;1.00;;;38.60;26.10;;;;;;4344412;33;20066;-38
2021/08/07 04:55:21;;;;;;;3.05;0.88;;;38.80;26.50;;;;;;4344157;33;20142;-37
2021/08/07 04:57:47;;;;;;;3.97;1.10;;;38.90;25.90;;;;;;4344293;33;20052;-38
2021/08/07 05:00:14;;;;;;;1.95;0.75;;;39.20;25.90;;;;;;4344542;33;20067;-39
2021/08/07 05:02:41;;;;;;;4.37;0.93;;;39.60;25.70;;;;;;4344016;33;20555;-37
2021/08/07 05:05:08;;;;;;;2.75;0.80;;;39.90;25.80;;;;;;4344283;33;20146;-38
2021/08/07 05:07:35;;;;;;;4.97;1.05;;;40.20;25.50;;;;;;4344169;33;20176;-37
2021/08/07 05:10:02;;;;;;;4.07;1.00;;;40.30;25.50;;;;;;4336598;33;20067;-38
2021/08/07 05:12:29;;;;;;;3.53;1.02;;;40.40;25.50;;;;;;4341503;33;20073;-39
2021/08/07 05:14:55;;;;;;;3.90;1.02;;;40.40;25.60;;;;;;4329414;33;20089;-37
2021/08/07 05:17:25;;;;;;;1.75;0.80;;;40.50;25.80;;;;;;4341380;33;20070;-38
2021/08/07 05:19:55;;;;;;;2.15;0.80;;;40.70;25.60;;;;;;4341567;33;20063;-38
2021/08/07 05:22:21;;;;;;;3.25;1.10;;;40.80;25.50;;;;;;4329081;33;20067;-38
2021/08/07 05:24:48;;;;;;;2.15;1.12;;;41.00;25.80;;;;;;4341860;33;20513;-37
2021/08/07 05:27:15;;;;;;;4.25;1.10;;;41.20;26.10;;;;;;4341774;33;20081;-38
2021/08/07 05:29:41;;;;;;;3.58;3.12;;;41.30;26.10;;;;;;4314313;33;20115;-37
2021/08/07 05:32:07;;;;;;;3.60;1.20;;;41.40;26.10;;;;;;4326498;33;20079;-38
2021/08/07 05:34:34;;;;;;;3.85;0.90;;;41.40;26.00;;;;;;4326592;33;20544;-38
2021/08/07 05:37:00;;;;;;;2.65;0.90;;;41.50;25.80;;;;;;4314559;33;20085;-38
2021/08/07 05:39:27;;;;;;;6.95;0.80;;;41.60;25.10;;;;;;4326341;33;20094;-38
2021/08/07 05:41:53;;;;;;;1.33;0.70;;;41.80;25.20;;;;;;4338906;33;20066;-38
2021/08/07 05:44:20;;;;;;;7.10;1.10;;;41.90;24.80;;;;;;4340966;33;20233;-38
2021/08/07 05:46:46;;;;;;;3.10;1.05;;;42.10;24.60;;;;;;4340837;33;20073;-38
2021/08/07 05:49:13;;;;;;;0.80;0.60;;;42.20;24.30;;;;;;4340904;33;20095;-39
2021/08/07 05:51:39;;;;;;;5.60;0.80;;;42.30;23.90;;;;;;4340678;33;20067;-39
2021/08/07 05:54:05;;;;;;;1.25;0.55;;;42.50;23.70;;;;;;4340969;33;20166;-39
2021/08/07 05:56:32;;;;;;;1.80;0.70;;;42.60;23.40;;;;;;4341195;33;20077;-38
2021/08/07 05:58:58;;;;;;;4.60;0.70;;;42.80;23.10;;;;;;4328721;33;20075;-38
2021/08/07 06:01:25;;;;;;;3.58;0.60;;;43.10;23.50;;;;;;4341195;33;20082;-38
2021/08/07 06:03:51;;;;;;;4.12;0.80;;;43.20;22.90;;;;;;4340906;33;20193;-38
2021/08/07 06:06:17;;;;;;;3.17;0.60;;;43.50;22.80;;;;;;4298766;33;20109;-39
2021/08/07 06:08:44;;;;;;;2.22;0.70;;;43.70;22.40;;;;;;4284067;33;20170;-38
2021/08/07 06:11:10;;;;;;;2.05;0.50;;;43.80;22.30;;;;;;4284710;33;20072;-38
2021/08/07 06:13:37;;;;;;;1.77;0.55;;;43.90;22.30;;;;;;4297033;33;20080;-39
2021/08/07 06:16:03;;;;;;;2.47;0.65;;;44.00;22.30;;;;;;4296573;33;20468;-40
2021/08/07 06:18:30;;;;;;;1.90;0.70;;;44.20;22.70;;;;;;4284396;33;20550;-39
2021/08/07 06:20:56;;;;;;;1.33;0.60;;;44.30;22.60;;;;;;4284954;33;20090;-39
2021/08/07 06:23:22;;;;;;;3.97;1.60;;;44.40;22.70;;;;;;4296976;33;20211;-38
2021/08/07 06:25:49;;;;;;;3.45;0.60;;;44.50;22.80;;;;;;4296794;33;20227;-41
2021/08/07 06:28:15;;;;;;;1.75;0.70;;;44.50;22.80;;;;;;4296761;33;20540;-39
2021/08/07 06:30:48;;;;;;;3.22;0.70;;;44.50;22.50;;;;;;4284597;33;20064;-39
2021/08/07 06:33:14;;;;;;;2.30;0.93;;;44.40;22.10;;;;;;4297013;33;20090;-39
2021/08/07 06:35:41;;;;;;;3.50;0.80;;;44.50;22.60;;;;;;4296646;33;20083;-39
2021/08/07 06:38:08;;;;;;;2.47;0.82;;;44.50;22.60;;;;;;4296777;33;20064;-38
2021/08/07 06:40:38;;;;;;;1.15;0.50;;;44.40;22.60;;;;;;4296261;33;20608;-39
2021/08/07 06:43:04;;;;;;;2.90;0.65;;;44.30;22.00;;;;;;4303002;33;20149;-39
2021/08/07 06:45:31;;;;;;;2.58;0.70;;;44.30;21.70;;;;;;4336209;32;20064;-38
2021/08/07 06:47:57;;;;;;;2.80;0.60;;;44.50;21.50;;;;;;4372911;32;20057;-40
2021/08/07 06:50:24;;;;;;;1.20;0.60;;;44.60;21.40;;;;;;4358424;32;20085;-40
2021/08/07 06:52:50;;;;;;;2.67;0.45;;;44.80;20.70;;;;;;4372960;32;20149;-38
2021/08/07 06:55:17;;;;;;;0.85;0.60;;;44.90;20.80;;;;;;4358997;32;20078;-39
2021/08/07 06:57:44;;;;;;;1.77;0.50;;;44.90;20.60;;;;;;4372647;32;20062;-38
2021/08/07 07:00:12;;;;;;;0.73;0.50;;;45.00;20.50;;;;;;4371007;32;20928;-38
2021/08/07 07:02:39;;;;;;;0.82;0.50;;;45.10;20.50;;;;;;4372403;32;20070;-38
2021/08/07 07:05:07;;;;;;;3.70;0.60;;;45.20;20.30;;;;;;4371142;32;20706;-39
2021/08/07 07:07:33;;;;;;;3.28;0.90;;;45.30;20.30;;;;;;4358866;32;20069;-38
2021/08/07 07:09:59;;;;;;;1.37;0.50;;;45.40;20.30;;;;;;4372282;32;20066;-39
2021/08/07 07:12:26;;;;;;;1.58;0.50;;;45.40;20.50;;;;;;4372661;32;20089;-38
2021/08/07 07:14:53;;;;;;;1.17;0.50;;;45.40;20.80;;;;;;4372350;32;20082;-37
2021/08/07 07:17:19;;;;;;;3.17;0.68;;;45.50;20.90;;;;;;4372497;32;20082;-38
2021/08/07 07:19:45;;;;;;;2.15;0.60;;;45.50;20.90;;;;;;4372633;32;20558;-39
2021/08/07 07:22:12;;;;;;;5.85;0.90;;;45.50;20.80;;;;;;4370862;32;20113;-38
2021/08/07 07:24:38;;;;;;;3.20;0.60;;;45.50;20.90;;;;;;4372436;32;20081;-39
2021/08/07 07:27:05;;;;;;;0.95;0.50;;;45.50;21.00;;;;;;4371125;32;20070;-39
2021/08/07 07:29:31;;;;;;;1.90;0.60;;;45.50;21.00;;;;;;4373499;32;20065;-38
2021/08/07 07:31:58;;;;;;;3.65;0.50;;;45.50;21.20;;;;;;4374889;32;20072;-39
2021/08/07 07:34:24;;;;;;;3.83;0.60;;;45.50;21.30;;;;;;4373567;32;20086;-38
2021/08/07 07:36:51;;;;;;;2.03;0.40;;;45.50;21.40;;;;;;4375379;32;20074;-38
2021/08/07 07:39:17;;;;;;;2.95;0.55;;;45.40;21.20;;;;;;4374779;32;20587;-39
2021/08/07 07:41:44;;;;;;;0.80;0.60;;;45.40;21.10;;;;;;4361069;32;20101;-39
2021/08/07 07:44:10;;;;;;;2.45;0.60;;;45.40;21.30;;;;;;4375046;32;20089;-38
2021/08/07 07:46:36;;;;;;;1.95;0.60;;;45.30;21.10;;;;;;4361068;32;20085;-38
2021/08/07 07:49:03;;;;;;;2.05;0.57;;;45.20;21.40;;;;;;4374793;32;20520;-38
2021/08/07 07:51:29;;;;;;;1.02;0.60;;;44.80;21.30;;;;;;4374873;32;20062;-38
2021/08/07 07:53:56;;;;;;;4.03;0.52;;;44.50;21.50;;;;;;4374637;32;20147;-39
2021/08/07 07:56:24;;;;;;;1.25;0.50;;;44.20;21.60;;;;;;4375331;32;20541;-38
2021/08/07 07:58:51;;;;;;;1.52;0.70;;;44.00;22.00;;;;;;4374776;32;20064;-39
2021/08/07 08:01:18;;;;;;;2.62;0.70;;;43.70;22.30;;;;;;4375029;32;20063;-38
2021/08/07 08:03:44;;;;;;;1.73;0.57;;;43.50;22.00;;;;;;4327192;33;20106;-39
2021/08/07 08:06:11;;;;;;;2.35;0.70;;;43.20;22.10;;;;;;4315557;33;20083;-39
2021/08/07 08:08:37;;;;;;;2.17;0.60;;;42.90;22.10;;;;;;4312569;33;20083;-38
2021/08/07 08:11:04;;;;;;;1.30;0.50;;;42.50;22.10;;;;;;4313043;33;20101;-39
2021/08/07 08:13:30;;;;;;;2.83;0.50;;;42.50;22.20;;;;;;4312821;33;20083;-39
2021/08/07 08:15:57;;;;;;;3.17;0.60;;;42.40;22.10;;;;;;4312661;33;20228;-39
2021/08/07 08:18:23;;;;;;;2.40;0.50;;;42.50;22.20;;;;;;4312898;33;20145;-38
2021/08/07 08:20:50;;;;;;;1.37;0.60;;;42.50;22.00;;;;;;4312903;33;20076;-39
2021/08/07 08:23:16;;;;;;;2.53;0.65;;;42.40;22.00;;;;;;4312586;33;20138;-39
2021/08/07 08:25:43;;;;;;;1.42;0.80;;;42.20;22.60;;;;;;4312780;33;20580;-40
2021/08/07 08:28:09;;;;;;;3.83;0.68;;;42.00;22.70;;;;;;4312721;33;20066;-38
2021/08/07 08:30:36;;;;;;;4.30;1.02;;;41.90;22.70;;;;;;4312514;33;20099;-40
2021/08/07 08:33:02;;;;;;;1.45;0.50;;;41.80;22.60;;;;;;4312471;33;20067;-39
2021/08/07 08:35:28;;;;;;;0.88;0.60;;;41.70;22.60;;;;;;4312656;33;20059;-38
2021/08/07 08:37:55;;;;;;;1.30;0.60;;;41.50;23.00;;;;;;4300374;33;20554;-38
2021/08/07 08:40:21;;;;;;;2.50;0.60;;;41.40;23.00;;;;;;4319518;32;20062;-39
2021/08/07 08:42:48;;;;;;;4.45;0.68;;;41.20;22.90;;;;;;4360971;32;20065;-39
2021/08/07 08:45:14;;;;;;;2.80;0.65;;;40.90;22.90;;;;;;4333307;32;20150;-39
2021/08/07 08:47:41;;;;;;;0.85;0.50;;;40.60;22.90;;;;;;4358945;32;20073;-38
2021/08/07 08:50:09;;;;;;;3.35;0.70;;;40.40;23.00;;;;;;4345462;32;20069;-39
2021/08/07 08:52:37;;;;;;;2.33;0.70;;;40.20;23.10;;;;;;4358810;32;20194;-39
2021/08/07 08:55:05;;;;;;;1.85;0.62;;;40.00;23.80;;;;;;4359167;32;20082;-40
2021/08/07 08:57:32;;;;;;;1.67;0.50;;;39.90;23.10;;;;;;4345079;32;20074;-40
2021/08/07 08:59:58;;;;;;;2.05;0.50;;;39.70;23.00;;;;;;4312107;33;20063;-39
2021/08/07 09:02:25;;;;;;;4.82;1.00;;;39.40;23.20;;;;;;4312713;33;20064;-39
2021/08/07 09:04:52;;;;;;;3.80;0.68;;;39.30;23.30;;;;;;4312404;33;20059;-39
2021/08/07 09:07:19;;;;;;;2.10;0.50;;;39.20;23.40;;;;;;4312121;33;20532;-38
2021/08/07 09:09:51;;;;;;;2.75;0.82;;;39.20;23.30;;;;;;4312110;33;20395;-39
2021/08/07 09:12:18;;;;;;;5.72;0.70;;;39.30;23.30;;;;;;4312077;33;20099;-38
2021/08/07 09:14:47;;;;;;;1.70;0.57;;;39.40;23.30;;;;;;4312115;33;20066;-39
2021/08/07 09:17:20;;;;;;;0.68;0.50;;;39.60;23.20;;;;;;4311867;33;20086;-38
2021/08/07 09:19:57;;;;;;;3.22;0.65;;;40.00;23.20;;;;;;4312160;33;20079;-38
2021/08/07 09:22:44;;;;;;;1.02;0.60;;;40.00;22.90;;;;;;4300352;33;20074;-39
2021/08/07 09:25:13;;;;;;;1.20;0.88;;;40.10;23.30;;;;;;4287966;33;20091;-39
2021/08/07 09:27:50;;;;;;;1.70;0.60;;;39.90;23.10;;;;;;4299979;33;20091;-39
2021/08/07 09:30:17;;;;;;;0.98;0.52;;;39.80;23.00;;;;;;4311994;33;20091;-39
2021/08/07 09:33:35;;;;;;;2.60;0.60;;;39.60;23.10;;;;;;4311655;33;20115;-38
2021/08/07 09:36:02;;;;;;;1.58;0.50;;;39.50;23.30;;;;;;4268835;33;20869;-39
2021/08/07 09:38:31;;;;;;;1.50;0.50;;;39.70;23.40;;;;;;4283584;33;20056;-38
2021/08/07 09:41:03;;;;;;;3.95;1.12;;;39.90;23.30;;;;;;4285717;33;20125;-39
2021/08/07 09:43:37;;;;;;;0.80;0.70;;;40.10;23.20;;;;;;4311883;33;20076;-39
2021/08/07 09:46:15;;;;;;;1.75;0.60;;;40.20;23.10;;;;;;4311933;33;20551;-39
2021/08/07 09:48:50;;;;;;;2.35;0.60;;;40.10;22.90;;;;;;4311628;33;20087;-38
2021/08/07 09:51:28;;;;;;;2.12;0.80;;;40.00;23.10;;;;;;4299455;33;20078;-39
2021/08/07 09:54:12;;;;;;;2.15;0.50;;;40.10;23.40;;;;;;4310924;33;20550;-39
2021/08/07 09:56:54;;;;;;;3.80;0.60;;;40.10;23.20;;;;;;4311400;33;20076;-38
2021/08/07 09:59:26;;;;;;;2.45;0.70;;;40.20;23.10;;;;;;4311136;33;20181;-38
2021/08/07 10:01:54;;;;;;;5.10;0.60;;;40.20;23.10;;;;;;4311307;33;20083;-39
2021/08/07 10:04:21;;;;;;;2.95;0.60;;;40.40;23.00;;;;;;4299817;33;20074;-38
2021/08/07 10:06:48;;;;;;;0.73;0.52;;;40.60;22.90;;;;;;4311657;33;20141;-39
2021/08/07 10:09:15;;;;;;;2.83;0.65;;;41.00;22.80;;;;;;4316293;33;20067;-39
2021/08/07 10:12:08;;;;;;;3.58;0.60;;;41.30;22.60;;;;;;4319096;32;20092;-39
2021/08/07 10:14:41;;;;;;;2.33;0.65;;;41.50;22.60;;;;;;4354260;32;20499;-39
2021/08/07 10:17:10;;;;;;;2.40;0.60;;;41.40;22.50;;;;;;4358331;32;20493;-40
2021/08/07 10:19:36;;;;;;;3.42;0.57;;;41.20;22.50;;;;;;4357929;32;20576;-39
2021/08/07 10:22:08;;;;;;;2.90;0.60;;;41.10;22.60;;;;;;4356471;32;20082;-39
2021/08/07 10:24:38;;;;;;;2.22;0.60;;;41.10;22.90;;;;;;4357739;32;20057;-39
2021/08/07 10:27:05;;;;;;;4.15;0.60;;;41.00;22.70;;;;;;4356214;32;20153;-39
2021/08/07 10:29:43;;;;;;;3.62;0.60;;;40.90;22.70;;;;;;4358313;32;20428;-39
2021/08/07 10:32:10;;;;;;;2.95;0.60;;;40.80;22.70;;;;;;4356569;32;20066;-39
2021/08/07 10:34:37;;;;;;;3.42;0.60;;;40.80;22.70;;;;;;4356243;32;20188;-44
2021/08/07 10:37:05;;;;;;;2.17;0.60;;;40.80;22.70;;;;;;4344281;32;20503;-37
2021/08/07 10:39:31;;;;;;;2.78;0.60;;;40.70;23.10;;;;;;4358392;32;20074;-38
2021/08/07 10:42:03;;;;;;;3.12;0.55;;;40.60;23.00;;;;;;4365864;32;20178;-38
2021/08/07 10:44:31;;;;;;;2.15;0.55;;;40.50;23.00;;;;;;4359375;32;20598;-41
2021/08/07 10:46:57;;;;;;;3.33;0.55;;;40.30;22.90;;;;;;4358873;32;20526;-38
2021/08/07 10:49:45;;;;;;;1.33;0.50;;;40.30;23.10;;;;;;4372575;32;20745;-39
2021/08/07 10:52:44;;;;;;;1.25;0.70;;;40.40;23.20;;;;;;4372829;32;20069;-38
2021/08/07 10:55:46;;;;;;;2.90;0.60;;;40.50;23.20;;;;;;4372589;32;20050;-39
2021/08/07 10:58:31;;;;;;;1.77;0.60;;;40.50;23.00;;;;;;4362576;32;20486;-39
2021/08/07 11:01:19;;;;;;;1.02;0.80;;;40.60;23.10;;;;;;4372696;32;20066;-39
2021/08/07 11:03:51;;;;;;;3.05;0.50;;;40.80;23.00;;;;;;4373937;32;20104;-38
2021/08/07 11:06:18;;;;;;;0.93;0.55;;;41.20;22.90;;;;;;4375694;32;20459;-39
2021/08/07 11:08:45;;;;;;;4.15;0.60;;;41.40;22.90;;;;;;4375489;32;20481;-40
2021/08/07 11:11:31;;;;;;;2.45;0.60;;;41.60;22.80;;;;;;4375678;32;20090;-39
2021/08/07 11:14:24;;;;;;;2.15;0.60;;;41.70;22.60;;;;;;4375571;32;20522;-39
2021/08/07 11:17:06;;;;;;;0.62;0.52;;;41.80;22.30;;;;;;4375597;32;20148;-39
2021/08/07 11:20:03;;;;;;;2.00;0.60;;;41.70;22.40;;;;;;4375912;32;20070;-38
2021/08/07 11:22:33;;;;;;;2.95;0.70;;;41.50;22.60;;;;;;4371578;32;20067;-39
2021/08/07 11:25:17;;;;;;;2.00;0.57;;;41.40;22.80;;;;;;4375613;32;20069;-38
2021/08/07 11:27:55;;;;;;;0.88;0.60;;;41.40;22.80;;;;;;4375698;32;20061;-38
2021/08/07 11:30:29;;;;;;;2.70;0.50;;;41.30;23.00;;;;;;4375528;32;20070;-39
2021/08/07 11:33:01;;;;;;;2.10;0.50;;;41.40;22.90;;;;;;4375196;32;20097;-40
2021/08/07 11:35:50;;;;;;;2.50;0.60;;;41.60;22.90;;;;;;4375408;32;20073;-39
2021/08/07 11:38:22;;;;;;;1.15;0.70;;;41.70;22.90;;;;;;4375225;32;20057;-39
2021/08/07 11:41:05;;;;;;;1.83;0.60;;;41.80;23.00;;;;;;4361031;32;20153;-38
2021/08/07 11:43:43;;;;;;;5.43;0.60;;;41.80;23.00;;;;;;4360296;32;20075;-39
2021/08/07 11:46:14;;;;;;;2.17;0.65;;;41.80;22.90;;;;;;4346646;32;20054;-39
2021/08/07 11:48:48;;;;;;;1.98;0.50;;;41.80;22.70;;;;;;4360251;32;20085;-40
2021/08/07 11:51:28;;;;;;;1.60;0.60;;;41.80;22.60;;;;;;4359606;32;20132;-39
2021/08/07 11:53:54;;;;;;;3.92;0.62;;;42.00;22.90;;;;;;4359920;32;20141;-39
2021/08/07 11:56:22;;;;;;;3.50;0.60;;;42.10;22.40;;;;;;4359960;32;20601;-39
2021/08/07 11:58:57;;;;;;;2.97;0.73;;;42.30;22.70;;;;;;4345828;32;20082;-38
2021/08/07 12:01:37;;;;;;;2.78;0.90;;;42.30;22.70;;;;;;4359789;32;20156;-39
2021/08/07 12:04:04;;;;;;;5.55;0.73;;;42.20;22.70;;;;;;4360285;32;20130;-39
2021/08/07 12:06:36;;;;;;;1.58;0.60;;;41.90;22.40;;;;;;4359693;32;20526;-39
2021/08/07 12:09:13;;;;;;;5.60;0.80;;;41.50;22.70;;;;;;4359905;32;20059;-39
2021/08/07 12:11:40;;;;;;;3.83;0.60;;;41.10;22.50;;;;;;4359947;32;20603;-40
2021/08/07 12:14:06;;;;;;;1.45;0.57;;;40.80;22.90;;;;;;4359960;32;20513;-39
2021/08/07 12:16:39;;;;;;;3.78;0.65;;;40.60;23.00;;;;;;4359013;32;20542;-38
2021/08/07 12:19:20;;;;;;;4.70;0.98;;;40.50;23.10;;;;;;4346405;32;20063;-39
2021/08/07 12:21:47;;;;;;;3.12;0.85;;;40.30;23.20;;;;;;4359896;32;20098;-39
2021/08/07 12:24:16;;;;;;;5.10;0.70;;;40.00;23.10;;;;;;4359551;32;20070;-39
2021/08/07 12:26:53;;;;;;;1.27;0.93;;;39.90;23.20;;;;;;4359645;32;20510;-39
2021/08/07 12:29:22;;;;;;;3.08;0.60;;;39.90;23.20;;;;;;4359150;32;20187;-39
2021/08/07 12:31:56;;;;;;;1.25;0.60;;;39.70;23.50;;;;;;4359858;32;20100;-39
2021/08/07 12:34:27;;;;;;;;;;;39.60;23.50;;;;;;4359636;32;20505;-37
2021/08/07 12:37:08;;;;;;;5.03;0.65;;;39.60;23.40;;;;;;4359424;32;20026;-39
2021/08/07 12:39:53;;;;;;;2.15;0.98;;;39.60;23.80;;;;;;4359428;32;20102;-38
2021/08/07 12:42:23;;;;;;;4.57;0.62;;;39.40;23.70;;;;;;4359765;32;20097;-38
2021/08/07 12:45:13;;;;;;;2.75;0.60;;;39.30;23.70;;;;;;4358039;32;20058;-38
2021/08/07 12:47:40;;;;;;;3.00;0.77;;;39.30;24.00;;;;;;4359392;32;20117;-38
2021/08/07 12:50:18;;;;;;;1.62;0.60;;;39.20;24.00;;;;;;4346099;32;20094;-38
2021/08/07 12:52:55;;;;;;;4.90;0.80;;;39.30;23.90;;;;;;4359122;32;20055;-39
2021/08/07 12:55:25;;;;;;;6.50;0.95;;;39.40;23.80;;;;;;4357583;32;20071;-39
2021/08/07 12:58:22;;;;;;;4.93;1.10;;;39.40;24.00;;;;;;4357530;32;20145;-39
2021/08/07 13:00:49;;;;;;;4.03;1.15;;;39.50;24.10;;;;;;4357598;32;20085;-39